Greenfield Center, New York
Current Conditions -  °F | °C
As of 5:53 PM on Wednesday 22 Oct 2014 (Local Time) from KGFL Reporting Station
Overcast Overcast  
Wind Chill: 11°   Ceiling: 2200
Heat Index: 11°   Visibility: 10mi
Dew Point:   Wind: 14mph
Humidity: 80%   Direction: 10°N
Pressure: 30.03"   Gusts: NA
Location:  43.13°N, 73.85°W
Report Text: KGFL 222153Z AUTO 01012KT 10SM BKN022 OVC031 11/07 A3003 RMK AO2 SLP174 T01060072
Loading
Personal Weather Stations






























Interactive Weather Map
Tropical Storm Tracking
New forecast layout! Learn more

10-Day Weather Forecast

Advertisements
Track Severe Weather on mobile